Kaiwo Maru — JMMU — position and weather

sailwx.info

Track history (hours):
 
Tides and Currents Weather Stations Pressure Air Temp Water Temp Dewpoint Dewpoint Depression Visibility Wind Speed Wind Dir Waves Ship Positions

Kaiwo Maru (Japan)

Built in 1989. Trains merchant marine cadets for Japan's National Institute for Sea Training.

Ship's website: http://www.kohkun.go.jp/en/ships/kaiwomaru.html

Last reported at 2017-Jan-10 03:33 UTC. Time now 2017-Jan-18 18:08 UTC.
Position N 35°05' E 139°45'.
Warning: this ship's position is 8 days out of date.

Length 110.1 m; beam 13.8 m; draft 6 m.

Type: Sailing vessel. MMSI: 431006000.

Date/timePositionNaut miles runAvg speedWind from/ knotsBaromVisibWave heightAir tempDewpointWater temp
2017-Jan-10 03:33N 35°05' E 139°45'10 9.9
2017-Jan-10 02:33N 35°15' E 139°46'9 9.0
2017-Jan-10 01:33N 35°24' E 139°43'1010.4
2017-Jan-10 00:33N 35°31' E 139°52'4 3.7
2017-Jan-09 23:32N 35°34' E 139°53'0 0.0
2017-Jan-09 22:29N 35°34' E 139°53'0 0.0
2017-Jan-09 21:32N 35°34' E 139°53'0 0.0
2017-Jan-09 20:32N 35°34' E 139°53'0 0.0
2017-Jan-09 19:32N 35°34' E 139°53'0 0.0
2017-Jan-09 18:26N 35°34' E 139°53'0 0.0
2017-Jan-09 17:23N 35°34' E 139°53'0 0.0
2017-Jan-09 16:32N 35°34' E 139°53'0 0.0
2017-Jan-09 15:32N 35°34' E 139°53'0 0.0
2017-Jan-09 14:29N 35°34' E 139°53'0 0.0
2017-Jan-09 13:32N 35°34' E 139°53'0 0.0
2017-Jan-09 12:29N 35°34' E 139°53'0 0.0
2017-Jan-09 11:29N 35°34' E 139°53'0 0.0
2017-Jan-09 10:32N 35°34' E 139°53'0 0.0
2017-Jan-09 09:32N 35°34' E 139°53'0 0.0
2017-Jan-09 08:32N 35°34' E 139°53'0 0.1
2017-Jan-09 07:26N 35°34' E 139°53'0 0.1
2017-Jan-09 06:32N 35°34' E 139°53'0 0.0
2017-Jan-09 05:23N 35°34' E 139°53'0 0.0
2017-Jan-09 04:29N 35°34' E 139°53'0 0.0
2017-Jan-09 03:32N 35°34' E 139°53'0 0.0
2017-Jan-09 02:32N 35°34' E 139°53'0 0.0
2017-Jan-09 01:31N 35°34' E 139°53'0 0.0
2017-Jan-09 00:31N 35°34' E 139°53'0 0.0
2017-Jan-08 23:32N 35°34' E 139°53'0 0.0
2017-Jan-08 22:26N 35°34' E 139°53'0 0.0
2017-Jan-08 21:25N 35°34' E 139°53'0 0.0
2017-Jan-08 20:33N 35°34' E 139°53'0 0.0
2017-Jan-08 19:28N 35°34' E 139°53'0 0.0
2017-Jan-08 18:29N 35°34' E 139°53'0 0.0
2017-Jan-08 17:22N 35°34' E 139°53'0 0.0
2017-Jan-08 16:30N 35°34' E 139°53'0 0.0
2017-Jan-08 15:33N 35°34' E 139°53'0 0.0
2017-Jan-08 14:17N 35°34' E 139°53'0 0.0
2017-Jan-08 13:34N 35°34' E 139°53'0 0.0
2017-Jan-08 12:28N 35°34' E 139°53'0 0.0
2017-Jan-08 11:29N 35°34' E 139°53'0 0.0
2017-Jan-08 10:32N 35°34' E 139°53'0 0.0
2017-Jan-08 09:14N 35°34' E 139°53'0 0.0
2017-Jan-08 08:32N 35°34' E 139°53'0 0.0
2017-Jan-08 07:23N 35°34' E 139°53'0 0.0
2017-Jan-08 06:32N 35°34' E 139°53'0 0.0
2017-Jan-08 05:32N 35°34' E 139°53'0 0.0
2017-Jan-08 04:29N 35°34' E 139°53'0 0.0
2017-Jan-08 03:26N 35°34' E 139°53'0 0.0
2017-Jan-08 02:29N 35°35' E 139°53'0 0.0
2017-Jan-08 01:17N 35°35' E 139°53'0 0.0
2017-Jan-08 00:23N 35°34' E 139°53'0 0.0
2017-Jan-07 23:32N 35°34' E 139°53'0 0.0
2017-Jan-07 22:29N 35°34' E 139°53'0 0.1
2017-Jan-07 21:32N 35°34' E 139°53'0 0.0
2017-Jan-07 20:32N 35°34' E 139°53'0 0.0
2017-Jan-07 19:32N 35°35' E 139°53'0 0.0
2017-Jan-07 18:32N 35°35' E 139°53'0 0.0
2017-Jan-07 16:20N 35°35' E 139°53'0 0.0
2017-Jan-07 06:22N 35°35' E 139°53'5 6.3
2017-Jan-07 05:33N 35°37' E 139°48'0 0.1
2017-Jan-07 04:30N 35°38' E 139°48'0 0.0
2017-Jan-07 03:24N 35°38' E 139°48'0 0.0
2017-Jan-07 02:24N 35°38' E 139°48'0 0.0
2017-Jan-07 01:18N 35°38' E 139°48'0 0.0
2017-Jan-07 00:30N 35°38' E 139°48'0 0.0
2017-Jan-06 23:30N 35°38' E 139°48'0 0.0
2017-Jan-06 22:18N 35°38' E 139°48'0 0.1
2017-Jan-06 21:30N 35°38' E 139°48'0 0.1
2017-Jan-06 20:30N 35°38' E 139°48'0 0.0
2017-Jan-06 19:30N 35°38' E 139°48'0 0.0
2017-Jan-06 18:30N 35°38' E 139°48'0 0.0
2017-Jan-06 17:30N 35°38' E 139°48'0 0.1
2017-Jan-06 16:33N 35°38' E 139°48'0 0.0
2017-Jan-06 15:30N 35°38' E 139°48'0 0.0
2017-Jan-06 14:30N 35°38' E 139°48'0 0.0
2017-Jan-06 13:30N 35°38' E 139°48'0 0.0
2017-Jan-06 12:30N 35°38' E 139°48'0 0.0
2017-Jan-06 11:30N 35°38' E 139°48'0 0.0
2017-Jan-06 10:30N 35°38' E 139°48'0 0.0
2017-Jan-06 09:30N 35°38' E 139°48'0 0.0
2017-Jan-06 08:24N 35°38' E 139°48'0 0.0
2017-Jan-06 07:33N 35°38' E 139°48'0 0.0
2017-Jan-06 06:30N 35°38' E 139°48'0 0.0
2017-Jan-06 05:30N 35°38' E 139°48'0 0.0
2017-Jan-06 04:33N 35°38' E 139°48'0 0.0
2017-Jan-06 03:33N 35°38' E 139°48'0 0.0
2017-Jan-06 02:27N 35°38' E 139°48'0 0.1
2017-Jan-06 01:33N 35°38' E 139°48'0 0.0
2017-Jan-06 00:21N 35°38' E 139°48'0 0.0
2017-Jan-05 23:12N 35°38' E 139°48'0 0.0
2017-Jan-05 22:30N 35°38' E 139°48'0 0.0
2017-Jan-05 21:24N 35°38' E 139°48'0 0.0
2017-Jan-05 20:33N 35°38' E 139°48'0 0.0
2017-Jan-05 19:18N 35°38' E 139°48'0 0.0
2017-Jan-05 18:30N 35°38' E 139°48'0 0.1
2017-Jan-05 17:30N 35°38' E 139°48'0 0.0
2017-Jan-05 16:30N 35°38' E 139°48'0 0.0
2017-Jan-05 14:30N 35°38' E 139°48'0 0.0
2017-Jan-05 13:30N 35°38' E 139°48'0 0.0
2017-Jan-05 12:21N 35°38' E 139°48'0 0.0
2017-Jan-05 11:30N 35°38' E 139°48'0 0.0
2017-Jan-05 10:12N 35°38' E 139°48'0 0.0
2017-Jan-05 09:24N 35°38' E 139°48'0 0.0
2017-Jan-05 08:06N 35°38' E 139°48'0 0.0
2017-Jan-05 06:12N 35°38' E 139°48'0 0.0
2017-Jan-05 03:30N 35°38' E 139°48'0 0.0
2017-Jan-05 02:30N 35°38' E 139°48'0 0.0
2017-Jan-05 01:30N 35°38' E 139°48'0 0.0
2017-Jan-04 23:24N 35°38' E 139°48'0 0.0
2017-Jan-04 20:12N 35°38' E 139°48'0 0.1
2017-Jan-04 19:27N 35°38' E 139°48'0 0.0
2017-Jan-04 18:27N 35°38' E 139°48'0 0.0
2017-Jan-04 17:24N 35°38' E 139°48'0 0.1
2017-Jan-04 16:30N 35°38' E 139°48'0 0.1
2017-Jan-04 15:33N 35°38' E 139°48'0 0.0
2017-Jan-04 14:24N 35°38' E 139°48'0 0.0
2017-Jan-04 13:30N 35°38' E 139°48'0 0.0
2017-Jan-04 12:24N 35°38' E 139°48'0 0.1
2017-Jan-04 11:33N 35°38' E 139°48'0 0.0
2017-Jan-04 10:24N 35°38' E 139°48'0 0.0
2017-Jan-04 09:18N 35°38' E 139°48'0 0.0
2017-Jan-04 08:30N 35°38' E 139°48'0 0.0
2017-Jan-04 07:24N 35°38' E 139°48'0 0.0
2017-Jan-04 06:30N 35°38' E 139°48'0 0.0
2017-Jan-04 05:30N 35°38' E 139°48'0 0.0
2017-Jan-04 04:24N 35°38' E 139°48'0 0.1
2017-Jan-04 03:30N 35°38' E 139°48'0 0.0
2017-Jan-03 23:21N 35°38' E 139°48'0 0.0
2017-Jan-03 22:21N 35°38' E 139°48'0 0.0
2017-Jan-03 21:33N 35°38' E 139°48'0 0.0
2017-Jan-03 20:33N 35°38' E 139°48'0 0.0
2017-Jan-03 19:33N 35°38' E 139°48'0 0.0
2017-Jan-03 18:30N 35°38' E 139°48'0 0.0
2017-Jan-03 17:33N 35°38' E 139°48'0 0.0
2017-Jan-03 16:33N 35°38' E 139°48'0 0.0
2017-Jan-03 15:24N 35°38' E 139°48'0 0.0
2017-Jan-03 14:33N 35°38' E 139°48'0 0.0
2017-Jan-03 13:33N 35°38' E 139°48'0 0.0
2017-Jan-03 12:24N 35°38' E 139°48'0 0.0
2017-Jan-03 11:33N 35°38' E 139°48'0 0.0
2017-Jan-03 10:27N 35°38' E 139°48'0 0.0
2017-Jan-03 09:27N 35°38' E 139°48'0 0.0
2017-Jan-03 08:33N 35°38' E 139°48'0 0.0
2017-Jan-03 07:27N 35°38' E 139°48'0 0.1
2017-Jan-03 06:30N 35°38' E 139°48'0 0.0
2017-Jan-03 05:27N 35°38' E 139°48'0 0.1
2017-Jan-03 04:33N 35°38' E 139°48'0 0.0
2017-Jan-03 03:27N 35°38' E 139°48'0 0.1
2017-Jan-03 02:33N 35°38' E 139°48'0 0.0
2017-Jan-03 01:33N 35°38' E 139°48'0 0.0
2017-Jan-03 00:33N 35°38' E 139°48'0 0.0
2017-Jan-02 23:33N 35°38' E 139°48'0 0.0
2017-Jan-02 22:30N 35°38' E 139°48'0 0.0
2017-Jan-02 21:33N 35°38' E 139°48'0 0.0
2017-Jan-02 20:33N 35°38' E 139°48'0 0.0
2017-Jan-02 19:33N 35°38' E 139°48'0 0.0
2017-Jan-02 18:33N 35°38' E 139°48'0 0.0
2017-Jan-02 17:33N 35°38' E 139°48'0 0.0
2017-Jan-02 16:33N 35°38' E 139°48'0 0.0
2017-Jan-02 15:33N 35°38' E 139°48'0 0.0
2017-Jan-02 14:30N 35°38' E 139°48'0 0.0
2017-Jan-02 13:30N 35°38' E 139°48'0 0.0
2017-Jan-02 12:30N 35°38' E 139°48'0 0.0
2017-Jan-02 11:30N 35°38' E 139°48'0 0.0
2017-Jan-02 10:33N 35°38' E 139°48'0 0.0
2017-Jan-02 09:21N 35°38' E 139°48'0 0.1
2017-Jan-02 08:33N 35°38' E 139°48'0 0.0
2017-Jan-02 07:30N 35°38' E 139°48'0 0.0
2017-Jan-02 06:24N 35°38' E 139°48'0 0.0
2017-Jan-02 05:06N 35°38' E 139°48'0 0.0
2017-Jan-02 02:18N 35°38' E 139°48'0 0.0
2017-Jan-02 01:30N 35°38' E 139°48'0 0.0
2017-Jan-02 00:12N 35°38' E 139°48'0 0.1
2017-Jan-01 23:30N 35°38' E 139°48'0 0.0
2017-Jan-01 22:30N 35°38' E 139°48'0 0.0
2017-Jan-01 21:21N 35°38' E 139°48'0 0.0
2017-Jan-01 20:33N 35°38' E 139°48'0 0.0
2017-Jan-01 19:33N 35°38' E 139°48'0 0.0
2017-Jan-01 18:33N 35°38' E 139°48'0 0.0
2017-Jan-01 17:33N 35°38' E 139°48'0 0.0
2017-Jan-01 16:30N 35°38' E 139°48'0 0.0
2017-Jan-01 15:30N 35°38' E 139°48'0 0.0
2017-Jan-01 14:24N 35°38' E 139°48'0 0.0
2017-Jan-01 13:30N 35°38' E 139°48'0 0.0
2017-Jan-01 12:30N 35°38' E 139°48'0 0.0
2017-Jan-01 11:27N 35°38' E 139°48'0 0.1
2017-Jan-01 10:30N 35°38' E 139°48'0 0.0
2017-Jan-01 09:24N 35°38' E 139°48'0 0.0
2017-Jan-01 08:33N 35°38' E 139°48'0 0.0
2017-Jan-01 07:33N 35°38' E 139°48'0 0.0
2017-Jan-01 06:30N 35°38' E 139°48'0 0.0
2017-Jan-01 05:18N 35°38' E 139°48'0 0.0
2017-Jan-01 03:30N 35°38' E 139°48'0 0.0
2017-Jan-01 02:18N 35°38' E 139°48'0 0.1
2017-Jan-01 01:30N 35°38' E 139°48'0 0.0
2017-Jan-01 00:18N 35°38' E 139°48'0 0.1
2016-Dec-31 23:31N 35°38' E 139°48'0 0.0
2016-Dec-31 22:31N 35°38' E 139°48'0 0.0
2016-Dec-31 21:31N 35°38' E 139°48'0 0.1
2016-Dec-31 20:31N 35°38' E 139°48'0 0.0
2016-Dec-31 19:31N 35°38' E 139°48'0 0.0
2016-Dec-31 18:31N 35°38' E 139°48'0 0.0
2016-Dec-31 17:31N 35°38' E 139°48'0 0.0
2016-Dec-31 16:31N 35°38' E 139°48'0 0.0
2016-Dec-31 15:31N 35°38' E 139°48'0 0.1
2016-Dec-31 14:31N 35°38' E 139°48'0 0.0
2016-Dec-31 13:31N 35°38' E 139°48'0 0.0
2016-Dec-31 12:31N 35°38' E 139°48'0 0.0
2016-Dec-31 11:25N 35°38' E 139°48'0 0.1
2016-Dec-31 10:31N 35°38' E 139°48'0 0.0
2016-Dec-31 09:31N 35°38' E 139°48'0 0.0
2016-Dec-31 08:31N 35°38' E 139°48'0 0.0
2016-Dec-31 07:31N 35°38' E 139°48'0 0.0
2016-Dec-31 06:31N 35°38' E 139°48'0 0.0
2016-Dec-31 05:31N 35°38' E 139°48'0 0.0
2016-Dec-31 04:31N 35°38' E 139°48'  
Track history (hours):
 
Tides and Currents Weather Stations Pressure Air Temp Water Temp Dewpoint Dewpoint Depression Visibility Wind Speed Wind Dir Waves Ship Positions

Kaiwo Maru (Japan)

Built in 1989. Trains merchant marine cadets for Japan's National Institute for Sea Training.

Ship's website: http://www.kohkun.go.jp/en/ships/kaiwomaru.html

Last reported at 2017-Jan-10 03:33 UTC. Time now 2017-Jan-18 18:08 UTC.
Position N 35°05' E 139°45'.
Warning: this ship's position is 8 days out of date.

Length 110.1 m; beam 13.8 m; draft 6 m.

Type: Sailing vessel. MMSI: 431006000.

Date/timePositionNaut miles runAvg speedWind from/ knotsBaromVisibWave heightAir tempDewpointWater temp
2017-Jan-10 03:33N 35°05' E 139°45'10 9.9
2017-Jan-10 02:33N 35°15' E 139°46'9 9.0
2017-Jan-10 01:33N 35°24' E 139°43'1010.4
2017-Jan-10 00:33N 35°31' E 139°52'4 3.7
2017-Jan-09 23:32N 35°34' E 139°53'0 0.0
2017-Jan-09 22:29N 35°34' E 139°53'0 0.0
2017-Jan-09 21:32N 35°34' E 139°53'0 0.0
2017-Jan-09 20:32N 35°34' E 139°53'0 0.0
2017-Jan-09 19:32N 35°34' E 139°53'0 0.0
2017-Jan-09 18:26N 35°34' E 139°53'0 0.0
2017-Jan-09 17:23N 35°34' E 139°53'0 0.0
2017-Jan-09 16:32N 35°34' E 139°53'0 0.0
2017-Jan-09 15:32N 35°34' E 139°53'0 0.0
2017-Jan-09 14:29N 35°34' E 139°53'0 0.0
2017-Jan-09 13:32N 35°34' E 139°53'0 0.0
2017-Jan-09 12:29N 35°34' E 139°53'0 0.0
2017-Jan-09 11:29N 35°34' E 139°53'0 0.0
2017-Jan-09 10:32N 35°34' E 139°53'0 0.0
2017-Jan-09 09:32N 35°34' E 139°53'0 0.0
2017-Jan-09 08:32N 35°34' E 139°53'0 0.1
2017-Jan-09 07:26N 35°34' E 139°53'0 0.1
2017-Jan-09 06:32N 35°34' E 139°53'0 0.0
2017-Jan-09 05:23N 35°34' E 139°53'0 0.0
2017-Jan-09 04:29N 35°34' E 139°53'0 0.0
2017-Jan-09 03:32N 35°34' E 139°53'0 0.0
2017-Jan-09 02:32N 35°34' E 139°53'0 0.0
2017-Jan-09 01:31N 35°34' E 139°53'0 0.0
2017-Jan-09 00:31N 35°34' E 139°53'0 0.0
2017-Jan-08 23:32N 35°34' E 139°53'0 0.0
2017-Jan-08 22:26N 35°34' E 139°53'0 0.0
2017-Jan-08 21:25N 35°34' E 139°53'0 0.0
2017-Jan-08 20:33N 35°34' E 139°53'0 0.0
2017-Jan-08 19:28N 35°34' E 139°53'0 0.0
2017-Jan-08 18:29N 35°34' E 139°53'0 0.0
2017-Jan-08 17:22N 35°34' E 139°53'0 0.0
2017-Jan-08 16:30N 35°34' E 139°53'0 0.0
2017-Jan-08 15:33N 35°34' E 139°53'0 0.0
2017-Jan-08 14:17N 35°34' E 139°53'0 0.0
2017-Jan-08 13:34N 35°34' E 139°53'0 0.0
2017-Jan-08 12:28N 35°34' E 139°53'0 0.0
2017-Jan-08 11:29N 35°34' E 139°53'0 0.0
2017-Jan-08 10:32N 35°34' E 139°53'0 0.0
2017-Jan-08 09:14N 35°34' E 139°53'0 0.0
2017-Jan-08 08:32N 35°34' E 139°53'0 0.0
2017-Jan-08 07:23N 35°34' E 139°53'0 0.0
2017-Jan-08 06:32N 35°34' E 139°53'0 0.0
2017-Jan-08 05:32N 35°34' E 139°53'0 0.0
2017-Jan-08 04:29N 35°34' E 139°53'0 0.0
2017-Jan-08 03:26N 35°34' E 139°53'0 0.0
2017-Jan-08 02:29N 35°35' E 139°53'0 0.0
2017-Jan-08 01:17N 35°35' E 139°53'0 0.0
2017-Jan-08 00:23N 35°34' E 139°53'0 0.0
2017-Jan-07 23:32N 35°34' E 139°53'0 0.0
2017-Jan-07 22:29N 35°34' E 139°53'0 0.1
2017-Jan-07 21:32N 35°34' E 139°53'0 0.0
2017-Jan-07 20:32N 35°34' E 139°53'0 0.0
2017-Jan-07 19:32N 35°35' E 139°53'0 0.0
2017-Jan-07 18:32N 35°35' E 139°53'0 0.0
2017-Jan-07 16:20N 35°35' E 139°53'0 0.0
2017-Jan-07 06:22N 35°35' E 139°53'5 6.3
2017-Jan-07 05:33N 35°37' E 139°48'0 0.1
2017-Jan-07 04:30N 35°38' E 139°48'0 0.0
2017-Jan-07 03:24N 35°38' E 139°48'0 0.0
2017-Jan-07 02:24N 35°38' E 139°48'0 0.0
2017-Jan-07 01:18N 35°38' E 139°48'0 0.0
2017-Jan-07 00:30N 35°38' E 139°48'0 0.0
2017-Jan-06 23:30N 35°38' E 139°48'0 0.0
2017-Jan-06 22:18N 35°38' E 139°48'0 0.1
2017-Jan-06 21:30N 35°38' E 139°48'0 0.1
2017-Jan-06 20:30N 35°38' E 139°48'0 0.0
2017-Jan-06 19:30N 35°38' E 139°48'0 0.0
2017-Jan-06 18:30N 35°38' E 139°48'0 0.0
2017-Jan-06 17:30N 35°38' E 139°48'0 0.1
2017-Jan-06 16:33N 35°38' E 139°48'0 0.0
2017-Jan-06 15:30N 35°38' E 139°48'0 0.0
2017-Jan-06 14:30N 35°38' E 139°48'0 0.0
2017-Jan-06 13:30N 35°38' E 139°48'0 0.0
2017-Jan-06 12:30N 35°38' E 139°48'0 0.0
2017-Jan-06 11:30N 35°38' E 139°48'0 0.0
2017-Jan-06 10:30N 35°38' E 139°48'0 0.0
2017-Jan-06 09:30N 35°38' E 139°48'0 0.0
2017-Jan-06 08:24N 35°38' E 139°48'0 0.0
2017-Jan-06 07:33N 35°38' E 139°48'0 0.0
2017-Jan-06 06:30N 35°38' E 139°48'0 0.0
2017-Jan-06 05:30N 35°38' E 139°48'0 0.0
2017-Jan-06 04:33N 35°38' E 139°48'0 0.0
2017-Jan-06 03:33N 35°38' E 139°48'0 0.0
2017-Jan-06 02:27N 35°38' E 139°48'0 0.1
2017-Jan-06 01:33N 35°38' E 139°48'0 0.0
2017-Jan-06 00:21N 35°38' E 139°48'0 0.0
2017-Jan-05 23:12N 35°38' E 139°48'0 0.0
2017-Jan-05 22:30N 35°38' E 139°48'0 0.0
2017-Jan-05 21:24N 35°38' E 139°48'0 0.0
2017-Jan-05 20:33N 35°38' E 139°48'0 0.0
2017-Jan-05 19:18N 35°38' E 139°48'0 0.0
2017-Jan-05 18:30N 35°38' E 139°48'0 0.1
2017-Jan-05 17:30N 35°38' E 139°48'0 0.0
2017-Jan-05 16:30N 35°38' E 139°48'0 0.0
2017-Jan-05 14:30N 35°38' E 139°48'0 0.0
2017-Jan-05 13:30N 35°38' E 139°48'0 0.0
2017-Jan-05 12:21N 35°38' E 139°48'0 0.0
2017-Jan-05 11:30N 35°38' E 139°48'0 0.0
2017-Jan-05 10:12N 35°38' E 139°48'0 0.0
2017-Jan-05 09:24N 35°38' E 139°48'0 0.0
2017-Jan-05 08:06N 35°38' E 139°48'0 0.0
2017-Jan-05 06:12N 35°38' E 139°48'0 0.0
2017-Jan-05 03:30N 35°38' E 139°48'0 0.0
2017-Jan-05 02:30N 35°38' E 139°48'0 0.0
2017-Jan-05 01:30N 35°38' E 139°48'0 0.0
2017-Jan-04 23:24N 35°38' E 139°48'0 0.0
2017-Jan-04 20:12N 35°38' E 139°48'0 0.1
2017-Jan-04 19:27N 35°38' E 139°48'0 0.0
2017-Jan-04 18:27N 35°38' E 139°48'0 0.0
2017-Jan-04 17:24N 35°38' E 139°48'0 0.1
2017-Jan-04 16:30N 35°38' E 139°48'0 0.1
2017-Jan-04 15:33N 35°38' E 139°48'0 0.0
2017-Jan-04 14:24N 35°38' E 139°48'0 0.0
2017-Jan-04 13:30N 35°38' E 139°48'0 0.0
2017-Jan-04 12:24N 35°38' E 139°48'0 0.1
2017-Jan-04 11:33N 35°38' E 139°48'0 0.0
2017-Jan-04 10:24N 35°38' E 139°48'0 0.0
2017-Jan-04 09:18N 35°38' E 139°48'0 0.0
2017-Jan-04 08:30N 35°38' E 139°48'0 0.0
2017-Jan-04 07:24N 35°38' E 139°48'0 0.0
2017-Jan-04 06:30N 35°38' E 139°48'0 0.0
2017-Jan-04 05:30N 35°38' E 139°48'0 0.0
2017-Jan-04 04:24N 35°38' E 139°48'0 0.1
2017-Jan-04 03:30N 35°38' E 139°48'0 0.0
2017-Jan-03 23:21N 35°38' E 139°48'0 0.0
2017-Jan-03 22:21N 35°38' E 139°48'0 0.0
2017-Jan-03 21:33N 35°38' E 139°48'0 0.0
2017-Jan-03 20:33N 35°38' E 139°48'0 0.0
2017-Jan-03 19:33N 35°38' E 139°48'0 0.0
2017-Jan-03 18:30N 35°38' E 139°48'0 0.0
2017-Jan-03 17:33N 35°38' E 139°48'0 0.0
2017-Jan-03 16:33N 35°38' E 139°48'0 0.0
2017-Jan-03 15:24N 35°38' E 139°48'0 0.0
2017-Jan-03 14:33N 35°38' E 139°48'0 0.0
2017-Jan-03 13:33N 35°38' E 139°48'0 0.0
2017-Jan-03 12:24N 35°38' E 139°48'0 0.0
2017-Jan-03 11:33N 35°38' E 139°48'0 0.0
2017-Jan-03 10:27N 35°38' E 139°48'0 0.0
2017-Jan-03 09:27N 35°38' E 139°48'0 0.0
2017-Jan-03 08:33N 35°38' E 139°48'0 0.0
2017-Jan-03 07:27N 35°38' E 139°48'0 0.1
2017-Jan-03 06:30N 35°38' E 139°48'0 0.0
2017-Jan-03 05:27N 35°38' E 139°48'0 0.1
2017-Jan-03 04:33N 35°38' E 139°48'0 0.0
2017-Jan-03 03:27N 35°38' E 139°48'0 0.1
2017-Jan-03 02:33N 35°38' E 139°48'0 0.0
2017-Jan-03 01:33N 35°38' E 139°48'0 0.0
2017-Jan-03 00:33N 35°38' E 139°48'0 0.0
2017-Jan-02 23:33N 35°38' E 139°48'0 0.0
2017-Jan-02 22:30N 35°38' E 139°48'0 0.0
2017-Jan-02 21:33N 35°38' E 139°48'0 0.0
2017-Jan-02 20:33N 35°38' E 139°48'0 0.0
2017-Jan-02 19:33N 35°38' E 139°48'0 0.0
2017-Jan-02 18:33N 35°38' E 139°48'0 0.0
2017-Jan-02 17:33N 35°38' E 139°48'0 0.0
2017-Jan-02 16:33N 35°38' E 139°48'0 0.0
2017-Jan-02 15:33N 35°38' E 139°48'0 0.0
2017-Jan-02 14:30N 35°38' E 139°48'0 0.0
2017-Jan-02 13:30N 35°38' E 139°48'0 0.0
2017-Jan-02 12:30N 35°38' E 139°48'0 0.0
2017-Jan-02 11:30N 35°38' E 139°48'0 0.0
2017-Jan-02 10:33N 35°38' E 139°48'0 0.0
2017-Jan-02 09:21N 35°38' E 139°48'0 0.1
2017-Jan-02 08:33N 35°38' E 139°48'0 0.0
2017-Jan-02 07:30N 35°38' E 139°48'0 0.0
2017-Jan-02 06:24N 35°38' E 139°48'0 0.0
2017-Jan-02 05:06N 35°38' E 139°48'0 0.0
2017-Jan-02 02:18N 35°38' E 139°48'0 0.0
2017-Jan-02 01:30N 35°38' E 139°48'0 0.0
2017-Jan-02 00:12N 35°38' E 139°48'0 0.1
2017-Jan-01 23:30N 35°38' E 139°48'0 0.0
2017-Jan-01 22:30N 35°38' E 139°48'0 0.0
2017-Jan-01 21:21N 35°38' E 139°48'0 0.0
2017-Jan-01 20:33N 35°38' E 139°48'0 0.0
2017-Jan-01 19:33N 35°38' E 139°48'0 0.0
2017-Jan-01 18:33N 35°38' E 139°48'0 0.0
2017-Jan-01 17:33N 35°38' E 139°48'0 0.0
2017-Jan-01 16:30N 35°38' E 139°48'0 0.0
2017-Jan-01 15:30N 35°38' E 139°48'0 0.0
2017-Jan-01 14:24N 35°38' E 139°48'0 0.0
2017-Jan-01 13:30N 35°38' E 139°48'0 0.0
2017-Jan-01 12:30N 35°38' E 139°48'0 0.0
2017-Jan-01 11:27N 35°38' E 139°48'0 0.1
2017-Jan-01 10:30N 35°38' E 139°48'0 0.0
2017-Jan-01 09:24N 35°38' E 139°48'0 0.0
2017-Jan-01 08:33N 35°38' E 139°48'0 0.0
2017-Jan-01 07:33N 35°38' E 139°48'0 0.0
2017-Jan-01 06:30N 35°38' E 139°48'0 0.0
2017-Jan-01 05:18N 35°38' E 139°48'0 0.0
2017-Jan-01 03:30N 35°38' E 139°48'0 0.0
2017-Jan-01 02:18N 35°38' E 139°48'0 0.1
2017-Jan-01 01:30N 35°38' E 139°48'0 0.0
2017-Jan-01 00:18N 35°38' E 139°48'0 0.1
2016-Dec-31 23:31N 35°38' E 139°48'0 0.0
2016-Dec-31 22:31N 35°38' E 139°48'0 0.0
2016-Dec-31 21:31N 35°38' E 139°48'0 0.1
2016-Dec-31 20:31N 35°38' E 139°48'0 0.0
2016-Dec-31 19:31N 35°38' E 139°48'0 0.0
2016-Dec-31 18:31N 35°38' E 139°48'0 0.0
2016-Dec-31 17:31N 35°38' E 139°48'0 0.0
2016-Dec-31 16:31N 35°38' E 139°48'0 0.0
2016-Dec-31 15:31N 35°38' E 139°48'0 0.1
2016-Dec-31 14:31N 35°38' E 139°48'0 0.0
2016-Dec-31 13:31N 35°38' E 139°48'0 0.0
2016-Dec-31 12:31N 35°38' E 139°48'0 0.0
2016-Dec-31 11:25N 35°38' E 139°48'0 0.1
2016-Dec-31 10:31N 35°38' E 139°48'0 0.0
2016-Dec-31 09:31N 35°38' E 139°48'0 0.0
2016-Dec-31 08:31N 35°38' E 139°48'0 0.0
2016-Dec-31 07:31N 35°38' E 139°48'0 0.0
2016-Dec-31 06:31N 35°38' E 139°48'0 0.0
2016-Dec-31 05:31N 35°38' E 139°48'0 0.0
2016-Dec-31 04:31N 35°38' E 139°48'  

Dump ship's entire track history